Terminal Aerodrome Forecast
Issued by NWS

Home | Current Version | Previous Version | Text Only | Print | Product List | Glossary Off
Versions: 1 2 3 4 5 6 7 8 9 10 11 12 13

000
FTUS43 KMPX 222335
TAFRNH
TAF
KRNH 222335Z 2300/2324 17010KT P6SM SCT150
     FM230200 18010KT P6SM SCT150 WS020/20050KT
     FM230800 19007KT P6SM SCT120 BKN250
     FM231700 19009KT P6SM SCT050=

USA.gov is the U.S. government's official web portal to all federal, state and local government web resources and services.